createdAt,value
2019-02-22T00:01:15.938Z,50.90
2019-02-22T00:03:44.458Z,50.00
2019-02-22T00:06:12.898Z,52.67
2019-02-22T00:08:41.351Z,51.50
2019-02-22T00:11:09.799Z,49.20
2019-02-22T00:13:38.272Z,45.83
2019-02-22T00:16:06.699Z,52.73
2019-02-22T00:18:35.145Z,46.37
2019-02-22T00:21:03.582Z,48.53
2019-02-22T00:23:33.516Z,47.53
2019-02-22T00:26:01.947Z,56.40
2019-02-22T00:28:30.387Z,47.23
2019-02-22T00:30:58.920Z,46.00
2019-02-22T00:33:27.348Z,50.50
2019-02-22T00:35:55.868Z,52.20
2019-02-22T00:38:27.000Z,51.10
2019-02-22T00:40:54.674Z,51.40
2019-02-22T00:43:23.100Z,54.70
2019-02-22T00:45:51.529Z,51.50
2019-02-22T00:48:19.976Z,50.43
2019-02-22T00:50:48.427Z,47.90
2019-02-22T00:53:16.908Z,54.80
2019-02-22T00:55:45.308Z,49.57
2019-02-22T00:58:13.861Z,54.03
2019-02-22T01:00:42.295Z,52.23
2019-02-22T01:03:10.725Z,57.07
2019-02-22T01:05:39.191Z,54.53
2019-02-22T01:08:07.652Z,52.90
2019-02-22T01:10:36.087Z,55.97
2019-02-22T01:13:04.558Z,53.00
2019-02-22T01:15:33.079Z,53.07
2019-02-22T01:18:01.543Z,56.07
2019-02-22T01:20:30.002Z,58.10
2019-02-22T01:22:58.539Z,54.03
2019-02-22T01:25:27.013Z,54.50
2019-02-22T01:27:55.612Z,58.40
2019-02-22T01:30:24.051Z,55.93
2019-02-22T01:32:52.534Z,55.70
2019-02-22T01:35:20.962Z,59.37
2019-02-22T01:37:49.427Z,56.73
2019-02-22T01:40:17.905Z,55.40
2019-02-22T01:42:46.346Z,56.03
2019-02-22T01:45:14.807Z,60.17
2019-02-22T01:47:43.250Z,56.60
2019-02-22T01:50:14.956Z,54.87
2019-02-22T01:52:43.397Z,56.70
2019-02-22T01:55:11.816Z,51.43
2019-02-22T01:57:40.247Z,57.20
2019-02-22T02:00:11.109Z,54.00
2019-02-22T02:02:39.599Z,58.47
2019-02-22T02:05:08.126Z,60.23
2019-02-22T02:07:36.608Z,57.03
2019-02-22T02:10:06.858Z,54.93
2019-02-22T02:12:35.238Z,56.27
2019-02-22T02:15:03.872Z,57.17
2019-02-22T02:17:32.280Z,55.83
2019-02-22T02:20:01.118Z,51.37
2019-02-22T02:22:29.793Z,58.03
2019-02-22T02:24:58.319Z,54.33
2019-02-22T02:27:26.785Z,55.33
2019-02-22T02:29:55.265Z,57.80
2019-02-22T02:32:23.701Z,49.63
2019-02-22T02:34:52.146Z,51.80
2019-02-22T02:37:20.570Z,59.77
2019-02-22T02:39:49.000Z,55.90
2019-02-22T02:42:17.513Z,55.70
2019-02-22T02:44:45.947Z,50.20
2019-02-22T02:47:14.423Z,52.43
2019-02-22T02:49:42.843Z,52.57
2019-02-22T02:52:11.415Z,48.77
2019-02-22T02:54:39.860Z,53.60
2019-02-22T02:57:08.315Z,55.10
2019-02-22T02:59:36.791Z,47.97
2019-02-22T03:02:06.857Z,50.37
2019-02-22T03:04:35.283Z,46.43
2019-02-22T03:07:11.013Z,45.30
2019-02-22T03:09:39.535Z,46.67
2019-02-22T03:12:07.967Z,45.40
2019-02-22T03:14:36.404Z,44.50
2019-02-22T03:17:05.004Z,40.97
2019-02-22T03:19:33.399Z,44.77
2019-02-22T03:22:01.841Z,41.90
2019-02-22T03:24:30.278Z,40.23
2019-02-22T03:26:58.713Z,39.37
2019-02-22T03:29:27.121Z,37.93
2019-02-22T03:31:55.581Z,34.07
2019-02-22T03:34:24.040Z,36.27
2019-02-22T03:36:52.573Z,32.60
2019-02-22T03:39:21.000Z,39.67
2019-02-22T03:41:49.432Z,36.27
2019-02-22T03:44:17.943Z,38.37
2019-02-22T03:46:46.358Z,35.10
2019-02-22T03:49:14.800Z,37.50
2019-02-22T03:51:43.277Z,32.70
2019-02-22T03:54:11.923Z,35.47
2019-02-22T03:56:40.353Z,33.30
2019-02-22T03:59:08.871Z,36.40
2019-02-22T04:01:37.386Z,35.07
2019-02-22T04:04:05.853Z,35.40
2019-02-22T04:06:34.294Z,34.47
2019-02-22T04:09:02.800Z,32.07
2019-02-22T04:11:31.318Z,36.13
2019-02-22T04:13:59.770Z,34.50
2019-02-22T04:16:28.207Z,41.70
2019-02-22T04:18:56.702Z,38.43
2019-02-22T04:21:25.141Z,36.40
2019-02-22T04:23:53.828Z,38.43
2019-02-22T04:26:22.231Z,38.03
2019-02-22T04:28:52.289Z,36.33
2019-02-22T04:31:20.739Z,39.53
2019-02-22T04:33:49.164Z,34.77
2019-02-22T04:36:17.607Z,32.43
2019-02-22T04:38:46.098Z,38.93
2019-02-22T04:41:14.532Z,33.40
2019-02-22T04:43:42.984Z,32.90
2019-02-22T04:46:11.498Z,38.87
2019-02-22T04:48:39.970Z,38.77
2019-02-22T04:51:08.766Z,37.53
2019-02-22T04:53:37.209Z,38.63
2019-02-22T04:56:05.652Z,35.40
2019-02-22T04:58:34.076Z,33.90
2019-02-22T05:01:02.594Z,40.07
2019-02-22T05:03:31.036Z,32.37
2019-02-22T05:05:59.501Z,38.40
2019-02-22T05:08:27.924Z,37.70
2019-02-22T05:10:56.351Z,37.20
2019-02-22T05:13:24.817Z,34.63
2019-02-22T05:15:53.409Z,41.00
2019-02-22T05:18:21.880Z,40.47
2019-02-22T05:20:50.393Z,39.20
2019-02-22T05:23:18.883Z,38.47
2019-02-22T05:25:47.318Z,35.03
2019-02-22T05:28:15.751Z,40.03
2019-02-22T05:30:44.209Z,40.80
2019-02-22T05:33:12.634Z,34.40
2019-02-22T05:35:41.067Z,45.53
2019-02-22T05:38:09.613Z,42.67
2019-02-22T05:40:38.060Z,35.07
2019-02-22T05:43:06.538Z,33.07
2019-02-22T05:45:34.980Z,37.50
2019-02-22T05:48:03.415Z,36.63
2019-02-22T05:50:31.872Z,40.60
2019-02-22T05:53:00.324Z,43.60
2019-02-22T05:55:28.838Z,41.20
2019-02-22T05:57:57.373Z,38.33
2019-02-22T06:00:26.004Z,37.23
2019-02-22T06:02:54.638Z,37.73
2019-02-22T06:05:23.565Z,42.90
2019-02-22T06:07:52.151Z,41.13
2019-02-22T06:10:20.671Z,38.83
2019-02-22T06:12:49.618Z,37.50
2019-02-22T06:15:18.067Z,42.37
2019-02-22T06:17:46.568Z,37.63
2019-02-22T06:20:14.956Z,39.50
2019-02-22T06:22:43.431Z,39.67
2019-02-22T06:25:11.900Z,35.17
2019-02-22T06:27:40.417Z,36.83
2019-02-22T06:30:10.524Z,39.93
2019-02-22T06:32:41.971Z,38.67
2019-02-22T06:35:09.337Z,39.87
2019-02-22T06:37:38.157Z,32.63
2019-02-22T06:40:09.193Z,37.63
2019-02-22T06:42:45.370Z,40.90
2019-02-22T06:45:08.953Z,38.13
2019-02-22T06:47:37.381Z,40.43
2019-02-22T06:50:07.883Z,39.70
2019-02-22T06:52:36.387Z,38.93
2019-02-22T06:55:06.250Z,42.87
2019-02-22T06:57:34.829Z,36.37
2019-02-22T07:00:05.468Z,42.77
2019-02-22T07:02:33.924Z,44.23
2019-02-22T07:05:02.379Z,44.90
2019-02-22T07:07:30.826Z,45.50
2019-02-22T07:09:59.365Z,45.83
2019-02-22T07:12:32.092Z,48.23
2019-02-22T07:15:00.652Z,52.20
2019-02-22T07:17:29.096Z,46.47
2019-02-22T07:19:57.607Z,49.33
2019-02-22T07:22:26.155Z,39.43
2019-02-22T07:24:54.571Z,45.17
2019-02-22T07:27:22.985Z,46.37
2019-02-22T07:29:51.587Z,48.10
2019-02-22T07:32:20.021Z,49.07
2019-02-22T07:34:48.470Z,48.37
2019-02-22T07:37:16.923Z,48.43
2019-02-22T07:39:45.367Z,52.23
2019-02-22T07:42:13.826Z,45.77
2019-02-22T07:44:42.544Z,48.73
2019-02-22T07:47:11.101Z,43.77
2019-02-22T07:49:39.688Z,47.43
2019-02-22T07:52:08.181Z,39.67
2019-02-22T07:54:36.619Z,46.00
2019-02-22T07:57:05.128Z,41.53
2019-02-22T07:59:33.550Z,42.33
2019-02-22T08:02:01.993Z,41.20
2019-02-22T08:04:30.444Z,43.70
2019-02-22T08:06:58.892Z,39.50
2019-02-22T08:09:27.365Z,38.73
2019-02-22T08:11:55.868Z,40.13
2019-02-22T08:14:24.294Z,38.73
2019-02-22T08:16:52.819Z,40.37
2019-02-22T08:19:21.267Z,34.00
2019-02-22T08:21:49.757Z,33.67
2019-02-22T08:24:18.219Z,37.87
2019-02-22T08:26:46.765Z,38.20
2019-02-22T08:29:15.219Z,33.40
2019-02-22T08:31:43.670Z,31.23
2019-02-22T08:34:12.090Z,33.77
2019-02-22T08:36:40.560Z,33.53
2019-02-22T08:39:09.031Z,35.47
2019-02-22T08:41:37.482Z,33.90
2019-02-22T08:44:06.009Z,30.07
2019-02-22T08:46:34.451Z,29.23
2019-02-22T08:49:02.872Z,33.80
2019-02-22T08:51:31.334Z,27.00
2019-02-22T08:53:59.765Z,26.40
2019-02-22T08:56:31.273Z,26.80
2019-02-22T08:58:59.701Z,26.97
2019-02-22T09:01:28.255Z,16.97
2019-02-22T09:03:56.749Z,12.17
2019-02-22T09:06:25.323Z,9.80
2019-02-22T09:08:53.724Z,9.60
2019-02-22T09:11:22.162Z,10.43
2019-02-22T09:13:50.677Z,12.77
2019-02-22T09:16:19.085Z,11.83
2019-02-22T09:18:47.528Z,12.50
2019-02-22T09:21:16.015Z,11.23
2019-02-22T09:23:44.450Z,12.00
2019-02-22T09:26:12.909Z,13.27
2019-02-22T09:28:41.348Z,8.03
2019-02-22T09:31:09.867Z,9.37
2019-02-22T09:33:38.785Z,10.67
2019-02-22T09:36:07.239Z,11.60
2019-02-22T09:38:35.700Z,10.50
2019-02-22T09:41:04.344Z,10.00
2019-02-22T09:43:32.824Z,12.10
2019-02-22T09:46:01.268Z,9.40
2019-02-22T09:48:29.774Z,9.17
2019-02-22T09:50:58.246Z,8.87
2019-02-22T09:53:26.789Z,8.47
2019-02-22T09:55:55.172Z,8.60
2019-02-22T09:58:23.721Z,8.70
2019-02-22T10:00:52.128Z,9.57
2019-02-22T10:03:20.569Z,8.13
2019-02-22T10:05:49.114Z,10.53
2019-02-22T10:08:17.522Z,9.13
2019-02-22T10:10:46.075Z,8.47
2019-02-22T10:13:14.514Z,7.70
2019-02-22T10:15:42.949Z,8.97
2019-02-22T10:18:11.392Z,12.90
2019-02-22T10:20:40.005Z,7.10
2019-02-22T10:23:08.372Z,6.23
2019-02-22T10:25:36.839Z,5.70
2019-02-22T10:28:05.260Z,7.40
2019-02-22T10:30:33.722Z,7.90
2019-02-22T10:33:02.159Z,7.83
2019-02-22T10:35:30.638Z,8.10
2019-02-22T10:37:59.147Z,8.60
2019-02-22T10:40:27.654Z,8.07
2019-02-22T10:42:58.481Z,5.90
2019-02-22T10:45:27.034Z,6.70
2019-02-22T10:47:55.454Z,6.17
2019-02-22T10:50:24.043Z,6.90
2019-02-22T10:53:01.853Z,6.97
2019-02-22T10:55:22.655Z,7.70
2019-02-22T10:57:51.304Z,5.80
2019-02-22T11:00:19.789Z,7.43
2019-02-22T11:02:48.263Z,6.10
2019-02-22T11:05:16.702Z,6.20
2019-02-22T11:07:45.182Z,7.23
2019-02-22T11:10:14.689Z,6.70
2019-02-22T11:12:43.127Z,12.40
2019-02-22T11:15:13.100Z,10.83
2019-02-22T11:17:41.624Z,8.00
2019-02-22T11:20:11.447Z,6.20
2019-02-22T11:22:39.859Z,8.77
2019-02-22T11:25:11.521Z,6.40
2019-02-22T11:27:39.972Z,6.13
2019-02-22T11:30:13.846Z,6.53
2019-02-22T11:32:42.389Z,7.07
2019-02-22T11:35:11.279Z,5.80
2019-02-22T11:37:39.739Z,6.47
2019-02-22T11:40:10.144Z,8.47
2019-02-22T11:42:38.613Z,6.00
2019-02-22T11:45:09.063Z,5.87
2019-02-22T11:47:37.539Z,6.77
2019-02-22T11:50:10.676Z,9.70
2019-02-22T11:52:39.111Z,6.67
2019-02-22T11:55:09.350Z,6.30
2019-02-22T11:57:38.019Z,7.30
2019-02-22T12:00:19.092Z,7.37
2019-02-22T12:02:48.080Z,6.93
2019-02-22T12:05:16.556Z,7.27
2019-02-22T12:07:44.991Z,6.30
2019-02-22T12:10:14.020Z,8.30
2019-02-22T12:12:42.472Z,6.77
2019-02-22T12:15:13.181Z,7.53
2019-02-22T12:17:41.695Z,8.67
2019-02-22T12:20:11.242Z,8.83
2019-02-22T12:22:39.646Z,7.43
2019-02-22T12:25:13.142Z,6.77
2019-02-22T12:27:41.580Z,8.00
2019-02-22T12:30:15.127Z,11.53
2019-02-22T12:32:43.588Z,8.70
2019-02-22T12:35:12.286Z,9.83
2019-02-22T12:37:40.755Z,7.77
2019-02-22T12:40:11.124Z,10.97
2019-02-22T12:42:39.578Z,10.50
2019-02-22T12:45:10.351Z,8.30
2019-02-22T12:47:38.803Z,9.10
2019-02-22T12:50:12.657Z,11.93
2019-02-22T12:52:44.106Z,11.40
2019-02-22T12:55:12.509Z,11.20
2019-02-22T12:57:41.009Z,10.03
2019-02-22T13:00:15.046Z,12.10
2019-02-22T13:02:43.513Z,10.17
2019-02-22T13:05:14.897Z,10.53
2019-02-22T13:07:43.351Z,11.57
2019-02-22T13:10:11.974Z,10.57
2019-02-22T13:12:40.432Z,12.73
2019-02-22T13:15:14.476Z,14.50
2019-02-22T13:17:41.618Z,11.57
2019-02-22T13:20:10.665Z,15.70
2019-02-22T13:22:39.140Z,13.70
2019-02-22T13:25:10.270Z,10.40
2019-02-22T13:27:38.706Z,11.73
2019-02-22T13:30:10.190Z,12.70
2019-02-22T13:32:38.662Z,12.33
2019-02-22T13:35:07.146Z,11.27
2019-02-22T13:37:35.615Z,11.13
2019-02-22T13:40:05.703Z,12.67
2019-02-22T13:42:36.099Z,12.70
2019-02-22T13:45:07.092Z,14.53
2019-02-22T13:47:35.545Z,11.23
2019-02-22T13:50:09.491Z,9.40
2019-02-22T13:52:38.091Z,10.07
2019-02-22T13:55:07.972Z,12.33
2019-02-22T13:57:36.478Z,8.70
2019-02-22T14:00:07.957Z,9.50
2019-02-22T14:02:37.865Z,11.03
2019-02-22T14:05:07.229Z,11.03
2019-02-22T14:07:35.697Z,10.23
2019-02-22T14:10:05.421Z,9.60
2019-02-22T14:12:33.858Z,10.57
2019-02-22T14:15:02.323Z,9.40
2019-02-22T14:17:30.798Z,10.63
2019-02-22T14:19:59.212Z,8.80
2019-02-22T14:22:27.883Z,9.73
2019-02-22T14:24:56.421Z,9.40
2019-02-22T14:27:24.845Z,11.63
2019-02-22T14:29:53.403Z,9.80
2019-02-22T14:32:21.910Z,11.73
2019-02-22T14:34:50.330Z,13.77
2019-02-22T14:37:19.345Z,12.23
2019-02-22T14:39:48.101Z,13.43
2019-02-22T14:42:16.559Z,12.70
2019-02-22T14:44:45.052Z,11.93
2019-02-22T14:47:13.588Z,11.70
2019-02-22T14:49:42.015Z,10.57
2019-02-22T14:52:12.693Z,12.90
2019-02-22T14:54:42.000Z,12.13
2019-02-22T14:57:10.398Z,11.20
2019-02-22T14:59:38.867Z,10.27
2019-02-22T15:02:07.347Z,11.07
2019-02-22T15:04:36.352Z,12.27
2019-02-22T15:07:04.984Z,9.43
2019-02-22T15:09:33.494Z,13.67
2019-02-22T15:12:01.980Z,11.93
2019-02-22T15:14:30.444Z,11.47
2019-02-22T15:17:03.614Z,10.87
2019-02-22T15:19:32.029Z,9.90
2019-02-22T15:22:01.239Z,10.67
2019-02-22T15:24:32.941Z,11.03
2019-02-22T15:27:01.177Z,10.77
2019-02-22T15:29:29.623Z,10.13
2019-02-22T15:31:58.086Z,11.03
2019-02-22T15:34:26.529Z,12.80
2019-02-22T15:36:55.012Z,13.10
2019-02-22T15:39:23.432Z,13.40
2019-02-22T15:41:51.937Z,16.10
2019-02-22T15:44:20.352Z,14.10
2019-02-22T15:46:48.774Z,13.73
2019-02-22T15:49:17.282Z,13.27
2019-02-22T15:51:49.106Z,13.93
2019-02-22T15:54:17.516Z,14.07
2019-02-22T15:56:46.021Z,13.30
2019-02-22T15:59:14.456Z,12.87
2019-02-22T16:01:42.876Z,12.23
2019-02-22T16:04:12.998Z,10.87
2019-02-22T16:06:41.423Z,12.40
2019-02-22T16:09:09.883Z,11.90
2019-02-22T16:11:38.386Z,14.17
2019-02-22T16:14:07.384Z,15.13
2019-02-22T16:16:36.129Z,13.93
2019-02-22T16:19:04.620Z,13.87
2019-02-22T16:21:33.065Z,13.30
2019-02-22T16:24:01.564Z,13.17
2019-02-22T16:26:30.963Z,13.77
2019-02-22T16:28:59.467Z,14.60
2019-02-22T16:31:27.916Z,14.00
2019-02-22T16:33:56.405Z,15.07
2019-02-22T16:36:24.853Z,14.90
2019-02-22T16:38:53.291Z,19.63
2019-02-22T16:41:21.826Z,14.40
2019-02-22T16:43:50.266Z,14.17
2019-02-22T16:46:18.724Z,13.87
2019-02-22T16:48:47.496Z,15.23
2019-02-22T16:51:15.958Z,16.73
2019-02-22T16:53:44.397Z,13.67
2019-02-22T16:56:12.838Z,16.87
2019-02-22T16:58:41.349Z,14.47
2019-02-22T17:01:10.585Z,18.10
2019-02-22T17:03:39.088Z,17.93
2019-02-22T17:06:07.646Z,14.43
2019-02-22T17:08:36.127Z,17.30
2019-02-22T17:11:04.684Z,14.53
2019-02-22T17:13:33.173Z,17.03
2019-02-22T17:16:01.734Z,16.43
2019-02-22T17:18:30.290Z,16.77
2019-02-22T17:20:58.711Z,17.50
2019-02-22T17:23:27.160Z,18.60
2019-02-22T17:25:55.627Z,16.67
2019-02-22T17:28:29.467Z,16.50
2019-02-22T17:30:57.922Z,17.20
2019-02-22T17:33:26.371Z,15.20
2019-02-22T17:35:54.801Z,15.13
2019-02-22T17:38:23.257Z,17.23
2019-02-22T17:40:51.676Z,18.67
2019-02-22T17:43:20.259Z,18.40
2019-02-22T17:45:49.582Z,16.20
2019-02-22T17:48:18.045Z,17.43
2019-02-22T17:50:46.559Z,18.17
2019-02-22T17:53:15.072Z,19.33
2019-02-22T17:55:43.535Z,16.30
2019-02-22T17:58:11.973Z,18.57
2019-02-22T18:00:40.582Z,16.43
2019-02-22T18:03:09.082Z,17.23
2019-02-22T18:05:37.563Z,19.27
2019-02-22T18:08:06.056Z,19.13
2019-02-22T18:10:34.495Z,19.60
2019-02-22T18:13:03.376Z,17.87
2019-02-22T18:15:32.441Z,18.70
2019-02-22T18:18:00.894Z,21.17
2019-02-22T18:20:29.400Z,18.07
2019-02-22T18:22:57.870Z,18.50
2019-02-22T18:25:26.280Z,19.10
2019-02-22T18:27:54.832Z,20.40
2019-02-22T18:30:24.884Z,17.27
2019-02-22T18:32:53.315Z,18.43
2019-02-22T18:35:21.842Z,16.17
2019-02-22T18:37:52.966Z,17.57
2019-02-22T18:40:23.187Z,20.07
2019-02-22T18:42:52.488Z,22.83
2019-02-22T18:45:20.916Z,21.87
2019-02-22T18:47:49.372Z,21.20
2019-02-22T18:50:17.859Z,20.70
2019-02-22T18:52:46.297Z,20.00
2019-02-22T18:55:14.845Z,22.03
2019-02-22T18:57:43.256Z,21.53
2019-02-22T19:00:20.642Z,20.43
2019-02-22T19:02:49.554Z,22.87
2019-02-22T19:05:17.969Z,27.10
2019-02-22T19:07:46.619Z,24.23
2019-02-22T19:10:17.003Z,21.03
2019-02-22T19:12:45.453Z,20.10
2019-02-22T19:15:15.034Z,21.07
2019-02-22T19:17:43.606Z,22.93
2019-02-22T19:20:14.940Z,20.53
2019-02-22T19:22:43.430Z,23.20
2019-02-22T19:25:11.945Z,22.33
2019-02-22T19:27:40.392Z,22.00
2019-02-22T19:30:20.718Z,19.63
2019-02-22T19:32:49.154Z,20.40
2019-02-22T19:35:17.669Z,22.03
2019-02-22T19:37:46.164Z,21.47
2019-02-22T19:40:20.698Z,20.43
2019-02-22T19:42:49.105Z,21.90
2019-02-22T19:45:17.637Z,22.13
2019-02-22T19:47:46.137Z,20.80
2019-02-22T19:50:15.253Z,22.20
2019-02-22T19:52:43.904Z,22.83
2019-02-22T19:55:14.572Z,22.77
2019-02-22T19:57:43.041Z,21.77
2019-02-22T20:00:23.004Z,18.67
2019-02-22T20:02:51.824Z,21.77
2019-02-22T20:05:20.408Z,31.37
2019-02-22T20:07:49.242Z,28.30
2019-02-22T20:10:20.229Z,27.37
2019-02-22T20:12:48.674Z,27.53
2019-02-22T20:15:17.847Z,23.93
2019-02-22T20:17:53.667Z,25.43
2019-02-22T20:20:18.118Z,30.93
2019-02-22T20:22:46.598Z,33.43
2019-02-22T20:25:15.144Z,38.30
2019-02-22T20:27:43.664Z,33.07
2019-02-22T20:30:16.505Z,27.90
2019-02-22T20:32:45.006Z,39.40
2019-02-22T20:35:19.855Z,47.23
2019-02-22T20:37:52.876Z,45.93
2019-02-22T20:40:18.489Z,30.53
2019-02-22T20:42:47.132Z,25.27
2019-02-22T20:45:15.771Z,24.90
2019-02-22T20:47:44.175Z,27.67
2019-02-22T20:50:14.257Z,23.47
2019-02-22T20:52:42.716Z,24.33
2019-02-22T20:55:11.893Z,21.50
2019-02-22T20:57:40.326Z,21.67
2019-02-22T21:00:11.564Z,22.10
2019-02-22T21:02:40.137Z,20.00
2019-02-22T21:05:10.234Z,21.70
2019-02-22T21:07:38.726Z,23.43
2019-02-22T21:10:10.457Z,19.27
2019-02-22T21:12:38.905Z,21.03
2019-02-22T21:15:10.711Z,18.20
2019-02-22T21:17:39.146Z,20.87
2019-02-22T21:20:10.128Z,19.33
2019-02-22T21:22:38.565Z,20.70
2019-02-22T21:25:09.781Z,17.20
2019-02-22T21:27:38.228Z,18.13
2019-02-22T21:30:09.724Z,17.97
2019-02-22T21:32:38.212Z,16.70
2019-02-22T21:35:08.083Z,19.03
2019-02-22T21:37:36.692Z,18.93
2019-02-22T21:40:07.681Z,15.73
2019-02-22T21:42:36.199Z,16.90
2019-02-22T21:45:06.941Z,18.43
2019-02-22T21:47:35.428Z,15.80
2019-02-22T21:50:05.205Z,17.67
2019-02-22T21:52:33.673Z,16.83
2019-02-22T21:55:02.086Z,17.53
2019-02-22T21:57:30.545Z,19.13
2019-02-22T21:59:59.088Z,18.37
2019-02-22T22:02:27.514Z,17.50
2019-02-22T22:04:55.959Z,18.57
2019-02-22T22:07:24.389Z,18.40
2019-02-22T22:09:52.947Z,20.73
2019-02-22T22:12:21.444Z,18.43
2019-02-22T22:14:49.912Z,17.73
2019-02-22T22:17:18.340Z,19.77
2019-02-22T22:19:46.813Z,18.87
2019-02-22T22:22:15.232Z,20.23
2019-02-22T22:24:43.667Z,20.33
2019-02-22T22:27:12.106Z,17.20
2019-02-22T22:29:40.572Z,26.07
2019-02-22T22:32:09.366Z,19.80
2019-02-22T22:34:37.828Z,20.70
2019-02-22T22:37:06.335Z,17.70
2019-02-22T22:39:34.814Z,17.00
2019-02-22T22:42:03.248Z,18.63
2019-02-22T22:44:31.773Z,20.33
2019-02-22T22:47:00.198Z,17.17
2019-02-22T22:49:28.642Z,17.77
2019-02-22T22:51:57.089Z,16.63
2019-02-22T22:54:25.512Z,16.47
2019-02-22T22:56:53.968Z,17.40
2019-02-22T22:59:22.404Z,14.53
2019-02-22T23:01:51.338Z,18.73
2019-02-22T23:04:20.165Z,17.50
2019-02-22T23:06:48.587Z,16.33
2019-02-22T23:09:18.786Z,16.17
2019-02-22T23:11:47.232Z,15.03
2019-02-22T23:14:16.304Z,13.90
2019-02-22T23:16:44.836Z,17.30
2019-02-22T23:19:13.261Z,14.73
2019-02-22T23:21:41.681Z,18.10
2019-02-22T23:24:10.222Z,13.60
2019-02-22T23:26:38.685Z,14.53
2019-02-22T23:29:07.112Z,13.27
2019-02-22T23:31:35.587Z,15.57
2019-02-22T23:34:04.071Z,13.97
2019-02-22T23:36:32.515Z,15.40
2019-02-22T23:39:01.803Z,18.67
2019-02-22T23:41:30.221Z,13.47
2019-02-22T23:43:58.671Z,13.97
2019-02-22T23:46:27.110Z,14.70
2019-02-22T23:48:55.553Z,15.73
2019-02-22T23:51:24.015Z,14.43
2019-02-22T23:53:52.502Z,13.17
2019-02-22T23:56:21.165Z,14.13
2019-02-22T23:58:49.591Z,15.27
